Greenville Farm
1800 N 800 E, North Logan
Last Weather Update:09/29/2011 11:00:00 PM
Date
ETo
ETc
Rain
Irrigation
Req
Temp
Max
Temp
Min
Temp
Avg
Avg RH
Avg Wind
Avg Solar
inches
inches
incehs
inches
F
F
F
%
%
watts/m2
08/01/2011 0.12" 0.10" 0.67" -0.43" 78.1° 60.5° 66.7° 79.6% 2.3 MPH 14.6w/m2
08/02/2011 0.20" 0.17" 0.47" -0.20" 84.3° 54.3° 68.8° 64.5% 2.0 MPH 25.2w/m2
08/03/2011 0.21" 0.18" 0.00" 0.18" 82.8° 59.5° 70.9° 56.8% 3.4 MPH 25.6w/m2
08/04/2011 0.22" 0.20" 0.00" 0.20" 87.3° 56.2° 70.6° 57.4% 3.0 MPH 28.5w/m2
08/05/2011 0.23" 0.20" 0.03" 0.17" 86.2° 55.4° 68.8° 54.8% 4.2 MPH 27.9w/m2
08/06/2011 0.23" 0.20" 0.00" 0.20" 86.9° 52.8° 69.3° 50.3% 3.4 MPH 28.3w/m2
08/07/2011 0.22" 0.19" 0.00" 0.19" 87.3° 52.4° 69.1° 43.0% 3.8 MPH 26.0w/m2
08/08/2011 0.23" 0.20" 0.00" 0.20" 87.1° 53.9° 70.1° 42.6% 3.2 MPH 27.9w/m2
08/09/2011 0.22" 0.18" 0.00" 0.18" 86.0° 53.8° 69.1° 42.6% 3.0 MPH 27.5w/m2
08/10/2011 0.23" 0.19" 0.00" 0.19" 86.0° 51.9° 69.3° 40.5% 3.2 MPH 27.6w/m2
08/11/2011 0.22" 0.19" 0.00" 0.19" 85.7° 52.1° 69.4° 39.1% 3.0 MPH 27.4w/m2
08/12/2011 0.21" 0.18" 0.00" 0.18" 86.1° 51.2° 68.4° 40.8% 2.7 MPH 27.4w/m2
08/13/2011 0.23" 0.19" 0.00" 0.19" 92.3° 52.1° 72.0° 40.2% 3.2 MPH 26.3w/m2
08/14/2011 0.25" 0.20" 0.00" 0.20" 88.5° 64.3° 78.1° 31.2% 4.1 MPH 26.5w/m2
08/15/2011 0.22" 0.18" 0.02" 0.16" 83.7° 60.2° 71.4° 46.3% 5.1 MPH 23.5w/m2
08/16/2011 0.20" 0.16" 0.00" 0.16" 85.0° 50.4° 66.9° 43.0% 2.6 MPH 26.6w/m2
08/17/2011 0.23" 0.18" 0.00" 0.18" 88.5° 51.7° 69.6° 38.6% 3.5 MPH 26.5w/m2
08/18/2011 0.21" 0.17" 0.00" 0.17" 90.9° 53.4° 70.7° 34.0% 2.7 MPH 25.8w/m2
08/19/2011 0.18" 0.14" 0.00" 0.14" 88.8° 53.4° 69.8° 40.0% 2.7 MPH 22.4w/m2
08/20/2011 0.24" 0.18" 0.00" 0.18" 90.9° 60.1° 75.3° 43.5% 4.4 MPH 25.3w/m2
08/21/2011 0.22" 0.17" 0.00" 0.17" 90.0° 57.3° 73.7° 43.8% 3.1 MPH 24.7w/m2
08/22/2011 0.23" 0.18" 0.00" 0.18" 91.3° 56.9° 74.7° 34.9% 3.6 MPH 25.4w/m2
08/23/2011 0.21" 0.16" 0.00" 0.16" 92.8° 55.1° 73.3° 37.6% 2.8 MPH 25.4w/m2
08/24/2011 0.22" 0.16" 0.00" 0.16" 93.4° 54.8° 74.0° 40.3% 3.0 MPH 24.9w/m2
08/25/2011 0.23" 0.17" 0.00" 0.17" 94.8° 65.5° 80.3° 33.3% 4.3 MPH 21.8w/m2
08/26/2011 0.24" 0.18" 0.00" 0.18" 95.1° 62.1° 80.6° 33.1% 4.1 MPH 24.8w/m2
08/27/2011 0.20" 0.15" 0.00" 0.15" 93.6° 63.6° 77.9° 39.3% 3.2 MPH 22.0w/m2
08/28/2011 0.16" 0.11" 0.00" 0.11" 87.3° 65.4° 74.3° 52.8% 2.7 MPH 17.5w/m2
08/29/2011 0.19" 0.14" 0.01" 0.13" 86.2° 56.4° 70.7° 55.8% 3.3 MPH 23.9w/m2
08/30/2011 0.19" 0.13" 0.00" 0.13" 87.2° 57.0° 72.5° 44.3% 3.3 MPH 20.8w/m2
08/31/2011 0.27" 0.19" 0.00" 0.19" 89.8° 62.7° 77.7° 26.4% 5.8 MPH 24.3w/m2
Totals: 6.67" 5.31" 1.20" 4.36" 95.1° 50.4° 72.1° 44.2% 3.4 MPH 24.9w/m2